sensor_id;sensor_type;location;lat;lon;timestamp;pressure;altitude;pressure_sealevel;temperature;humidity
29569;BME280;16501;51.462;14.346;2023-12-22T00:00:30;97392.78;;;3.88;100.00
29569;BME280;16501;51.462;14.346;2023-12-22T00:02:55;97383.16;;;3.72;100.00
29569;BME280;16501;51.462;14.346;2023-12-22T00:05:20;97364.78;;;3.75;100.00
29569;BME280;16501;51.462;14.346;2023-12-22T00:07:46;97358.16;;;3.55;100.00
29569;BME280;16501;51.462;14.346;2023-12-22T00:10:11;97397.84;;;3.90;100.00
29569;BME280;16501;51.462;14.346;2023-12-22T00:12:36;97355.75;;;3.80;100.00
29569;BME280;16501;51.462;14.346;2023-12-22T00:15:04;97361.22;;;3.69;100.00
29569;BME280;16501;51.462;14.346;2023-12-22T00:17:29;97358.94;;;3.67;100.00
29569;BME280;16501;51.462;14.346;2023-12-22T00:19:54;97387.19;;;3.71;100.00
29569;BME280;16501;51.462;14.346;2023-12-22T00:22:23;97402.13;;;3.85;100.00
29569;BME280;16501;51.462;14.346;2023-12-22T00:24:50;97384.47;;;3.88;100.00
29569;BME280;16501;51.462;14.346;2023-12-22T00:27:15;97397.31;;;3.80;100.00
29569;BME280;16501;51.462;14.346;2023-12-22T00:29:40;97417.78;;;3.94;100.00
29569;BME280;16501;51.462;14.346;2023-12-22T00:32:06;97391.03;;;3.85;100.00
29569;BME280;16501;51.462;14.346;2023-12-22T00:34:34;97391.72;;;3.74;100.00
29569;BME280;16501;51.462;14.346;2023-12-22T00:36:59;97392.53;;;3.86;100.00
29569;BME280;16501;51.462;14.346;2023-12-22T00:39:25;97384.47;;;3.83;100.00
29569;BME280;16501;51.462;14.346;2023-12-22T00:41:50;97396.09;;;3.87;100.00
29569;BME280;16501;51.462;14.346;2023-12-22T00:44:15;97388.44;;;3.76;100.00
29569;BME280;16501;51.462;14.346;2023-12-22T00:46:41;97395.75;;;3.73;100.00
29569;BME280;16501;51.462;14.346;2023-12-22T00:49:06;97376.84;;;3.72;100.00
29569;BME280;16501;51.462;14.346;2023-12-22T00:51:32;97375.06;;;3.69;100.00
29569;BME280;16501;51.462;14.346;2023-12-22T00:53:57;97410.19;;;3.83;100.00
29569;BME280;16501;51.462;14.346;2023-12-22T00:56:22;97395.53;;;3.77;100.00
29569;BME280;16501;51.462;14.346;2023-12-22T00:58:48;97398.03;;;3.69;100.00
29569;BME280;16501;51.462;14.346;2023-12-22T01:01:13;97400.47;;;3.62;100.00
29569;BME280;16501;51.462;14.346;2023-12-22T01:03:38;97431.81;;;3.79;100.00
29569;BME280;16501;51.462;14.346;2023-12-22T01:06:03;97417.94;;;3.73;100.00
29569;BME280;16501;51.462;14.346;2023-12-22T01:08:29;97364.41;;;3.50;100.00
29569;BME280;16501;51.462;14.346;2023-12-22T01:10:54;97387.09;;;3.54;100.00
29569;BME280;16501;51.462;14.346;2023-12-22T01:13:19;97408.13;;;3.78;100.00
29569;BME280;16501;51.462;14.346;2023-12-22T01:15:45;97427.25;;;3.76;100.00
29569;BME280;16501;51.462;14.346;2023-12-22T01:18:10;97432.28;;;3.72;100.00
29569;BME280;16501;51.462;14.346;2023-12-22T01:20:36;97414.91;;;3.71;100.00
29569;BME280;16501;51.462;14.346;2023-12-22T01:23:01;97398.75;;;3.64;100.00
29569;BME280;16501;51.462;14.346;2023-12-22T01:25:26;97391.16;;;3.59;100.00
29569;BME280;16501;51.462;14.346;2023-12-22T01:27:52;97381.59;;;3.66;100.00
29569;BME280;16501;51.462;14.346;2023-12-22T01:30:17;97423.16;;;3.66;100.00
29569;BME280;16501;51.462;14.346;2023-12-22T01:32:43;97444.34;;;3.69;100.00
29569;BME280;16501;51.462;14.346;2023-12-22T01:35:08;97467.72;;;3.62;100.00
29569;BME280;16501;51.462;14.346;2023-12-22T01:37:38;97490.47;;;3.72;100.00
29569;BME280;16501;51.462;14.346;2023-12-22T01:40:04;97490.44;;;3.66;100.00
29569;BME280;16501;51.462;14.346;2023-12-22T01:42:29;97464.91;;;3.51;100.00
29569;BME280;16501;51.462;14.346;2023-12-22T01:44:55;97492.41;;;3.60;100.00
29569;BME280;16501;51.462;14.346;2023-12-22T01:47:20;97502.75;;;3.59;100.00
29569;BME280;16501;51.462;14.346;2023-12-22T01:49:46;97500.41;;;3.52;100.00
29569;BME280;16501;51.462;14.346;2023-12-22T01:52:11;97488.59;;;3.52;100.00
29569;BME280;16501;51.462;14.346;2023-12-22T01:54:37;97486.81;;;3.54;100.00
29569;BME280;16501;51.462;14.346;2023-12-22T01:57:02;97482.72;;;3.44;100.00
29569;BME280;16501;51.462;14.346;2023-12-22T01:59:28;97459.22;;;3.34;100.00
29569;BME280;16501;51.462;14.346;2023-12-22T02:01:56;97496.06;;;3.40;100.00
29569;BME280;16501;51.462;14.346;2023-12-22T02:04:22;97477.38;;;3.35;100.00
29569;BME280;16501;51.462;14.346;2023-12-22T02:06:47;97488.59;;;3.26;100.00
29569;BME280;16501;51.462;14.346;2023-12-22T02:09:12;97517.72;;;3.42;100.00
29569;BME280;16501;51.462;14.346;2023-12-22T02:11:38;97490.97;;;3.33;100.00
29569;BME280;16501;51.462;14.346;2023-12-22T02:14:04;97507.34;;;3.36;100.00
29569;BME280;16501;51.462;14.346;2023-12-22T02:16:44;97498.56;;;3.38;100.00
29569;BME280;16501;51.462;14.346;2023-12-22T02:19:40;97475.59;;;3.32;100.00
29569;BME280;16501;51.462;14.346;2023-12-22T02:22:08;97465.25;;;3.32;100.00
29569;BME280;16501;51.462;14.346;2023-12-22T02:24:34;97488.75;;;3.43;100.00
29569;BME280;16501;51.462;14.346;2023-12-22T02:27:04;97481.72;;;3.42;100.00
29569;BME280;16501;51.462;14.346;2023-12-22T02:29:36;97472.28;;;3.28;100.00
29569;BME280;16501;51.462;14.346;2023-12-22T02:32:07;97498.66;;;3.23;100.00
29569;BME280;16501;51.462;14.346;2023-12-22T02:34:35;97499.13;;;3.48;100.00
29569;BME280;16501;51.462;14.346;2023-12-22T02:37:07;97476.06;;;3.30;100.00
29569;BME280;16501;51.462;14.346;2023-12-22T02:39:33;97520.25;;;3.45;100.00
29569;BME280;16501;51.462;14.346;2023-12-22T02:41:59;97495.06;;;3.43;100.00
29569;BME280;16501;51.462;14.346;2023-12-22T02:44:27;97493.00;;;3.38;100.00
29569;BME280;16501;51.462;14.346;2023-12-22T02:46:52;97504.88;;;3.44;100.00
29569;BME280;16501;51.462;14.346;2023-12-22T02:49:18;97512.69;;;3.46;100.00
29569;BME280;16501;51.462;14.346;2023-12-22T02:51:44;97500.94;;;3.25;100.00
29569;BME280;16501;51.462;14.346;2023-12-22T02:54:09;97493.13;;;3.23;100.00
29569;BME280;16501;51.462;14.346;2023-12-22T02:56:34;97518.09;;;3.29;100.00
29569;BME280;16501;51.462;14.346;2023-12-22T02:59:00;97528.69;;;3.30;100.00
29569;BME280;16501;51.462;14.346;2023-12-22T03:01:25;97497.97;;;3.02;100.00
29569;BME280;16501;51.462;14.346;2023-12-22T03:03:50;97518.34;;;3.31;100.00
29569;BME280;16501;51.462;14.346;2023-12-22T03:06:15;97526.66;;;3.31;100.00
29569;BME280;16501;51.462;14.346;2023-12-22T03:08:41;97523.38;;;3.27;100.00
29569;BME280;16501;51.462;14.346;2023-12-22T03:11:06;97482.75;;;3.18;100.00
29569;BME280;16501;51.462;14.346;2023-12-22T03:13:31;97518.75;;;3.18;100.00
29569;BME280;16501;51.462;14.346;2023-12-22T03:15:57;97512.22;;;3.15;100.00
29569;BME280;16501;51.462;14.346;2023-12-22T03:18:22;97518.75;;;3.18;100.00
29569;BME280;16501;51.462;14.346;2023-12-22T03:20:47;97529.84;;;3.18;100.00
29569;BME280;16501;51.462;14.346;2023-12-22T03:23:12;97535.16;;;3.21;100.00
29569;BME280;16501;51.462;14.346;2023-12-22T03:25:38;97529.75;;;3.07;100.00
29569;BME280;16501;51.462;14.346;2023-12-22T03:28:03;97523.59;;;3.23;100.00
29569;BME280;16501;51.462;14.346;2023-12-22T03:30:28;97492.28;;;3.11;100.00
29569;BME280;16501;51.462;14.346;2023-12-22T03:32:54;97476.53;;;2.97;100.00
29569;BME280;16501;51.462;14.346;2023-12-22T03:35:19;97526.06;;;3.15;100.00
29569;BME280;16501;51.462;14.346;2023-12-22T03:37:44;97507.31;;;3.05;100.00
29569;BME280;16501;51.462;14.346;2023-12-22T03:40:10;97500.53;;;3.06;100.00
29569;BME280;16501;51.462;14.346;2023-12-22T03:42:35;97506.59;;;3.10;100.00
29569;BME280;16501;51.462;14.346;2023-12-22T03:45:00;97492.88;;;2.95;100.00
29569;BME280;16501;51.462;14.346;2023-12-22T03:47:25;97493.31;;;2.88;100.00
29569;BME280;16501;51.462;14.346;2023-12-22T03:49:51;97499.34;;;2.86;100.00
29569;BME280;16501;51.462;14.346;2023-12-22T03:52:16;97515.28;;;2.97;100.00
29569;BME280;16501;51.462;14.346;2023-12-22T03:54:41;97515.50;;;2.93;100.00
29569;BME280;16501;51.462;14.346;2023-12-22T03:57:07;97539.31;;;2.85;100.00
29569;BME280;16501;51.462;14.346;2023-12-22T03:59:32;97528.72;;;2.83;100.00
29569;BME280;16501;51.462;14.346;2023-12-22T04:01:57;97551.97;;;2.92;100.00
29569;BME280;16501;51.462;14.346;2023-12-22T04:04:26;97507.63;;;2.60;100.00
29569;BME280;16501;51.462;14.346;2023-12-22T04:06:53;97529.06;;;2.65;100.00
29569;BME280;16501;51.462;14.346;2023-12-22T04:09:18;97531.44;;;2.78;100.00
29569;BME280;16501;51.462;14.346;2023-12-22T04:11:44;97522.94;;;2.61;100.00
29569;BME280;16501;51.462;14.346;2023-12-22T04:14:09;97504.84;;;2.60;100.00
29569;BME280;16501;51.462;14.346;2023-12-22T04:16:36;97524.47;;;2.62;100.00
29569;BME280;16501;51.462;14.346;2023-12-22T04:19:02;97533.81;;;2.64;100.00
29569;BME280;16501;51.462;14.346;2023-12-22T04:21:27;97539.34;;;2.64;100.00
29569;BME280;16501;51.462;14.346;2023-12-22T04:23:52;97527.25;;;2.62;100.00
29569;BME280;16501;51.462;14.346;2023-12-22T04:26:17;97526.00;;;2.63;100.00
29569;BME280;16501;51.462;14.346;2023-12-22T04:28:43;97551.50;;;2.73;100.00
29569;BME280;16501;51.462;14.346;2023-12-22T04:31:08;97536.66;;;2.70;100.00
29569;BME280;16501;51.462;14.346;2023-12-22T04:33:33;97530.03;;;2.62;100.00
29569;BME280;16501;51.462;14.346;2023-12-22T04:35:58;97543.09;;;2.61;100.00
29569;BME280;16501;51.462;14.346;2023-12-22T04:38:24;97557.00;;;2.67;100.00
29569;BME280;16501;51.462;14.346;2023-12-22T04:40:49;97545.38;;;2.42;100.00
29569;BME280;16501;51.462;14.346;2023-12-22T04:43:14;97586.72;;;2.52;100.00
29569;BME280;16501;51.462;14.346;2023-12-22T04:45:40;97549.16;;;2.45;100.00
29569;BME280;16501;51.462;14.346;2023-12-22T04:48:06;97553.25;;;2.29;100.00
29569;BME280;16501;51.462;14.346;2023-12-22T04:50:31;97549.50;;;2.12;100.00
29569;BME280;16501;51.462;14.346;2023-12-22T04:52:56;97551.81;;;2.34;100.00
29569;BME280;16501;51.462;14.346;2023-12-22T04:55:22;97519.72;;;2.01;100.00
29569;BME280;16501;51.462;14.346;2023-12-22T04:57:47;97543.72;;;2.30;100.00
29569;BME280;16501;51.462;14.346;2023-12-22T05:00:12;97540.59;;;2.22;100.00
29569;BME280;16501;51.462;14.346;2023-12-22T05:02:38;97545.38;;;2.22;100.00
29569;BME280;16501;51.462;14.346;2023-12-22T05:05:03;97512.03;;;2.11;100.00
29569;BME280;16501;51.462;14.346;2023-12-22T05:07:28;97544.47;;;2.31;100.00
29569;BME280;16501;51.462;14.346;2023-12-22T05:09:54;97512.31;;;2.13;100.00
29569;BME280;16501;51.462;14.346;2023-12-22T05:12:20;97500.16;;;2.04;100.00
29569;BME280;16501;51.462;14.346;2023-12-22T05:14:46;97501.38;;;2.03;100.00
29569;BME280;16501;51.462;14.346;2023-12-22T05:17:11;97517.28;;;2.08;100.00
29569;BME280;16501;51.462;14.346;2023-12-22T05:19:36;97497.72;;;1.92;100.00
29569;BME280;16501;51.462;14.346;2023-12-22T05:22:01;97526.25;;;2.03;100.00
29569;BME280;16501;51.462;14.346;2023-12-22T05:24:26;97512.44;;;2.03;100.00
29569;BME280;16501;51.462;14.346;2023-12-22T05:26:52;97491.22;;;1.95;100.00
29569;BME280;16501;51.462;14.346;2023-12-22T05:29:18;97492.00;;;1.95;100.00
29569;BME280;16501;51.462;14.346;2023-12-22T05:31:43;97486.31;;;1.84;100.00
29569;BME280;16501;51.462;14.346;2023-12-22T05:34:09;97463.59;;;1.95;100.00
29569;BME280;16501;51.462;14.346;2023-12-22T05:36:35;97520.25;;;2.05;100.00
29569;BME280;16501;51.462;14.346;2023-12-22T05:39:00;97527.03;;;2.04;100.00
29569;BME280;16501;51.462;14.346;2023-12-22T05:41:26;97509.09;;;1.79;100.00
29569;BME280;16501;51.462;14.346;2023-12-22T05:43:51;97505.16;;;1.85;100.00
29569;BME280;16501;51.462;14.346;2023-12-22T05:46:16;97423.56;;;1.34;100.00
29569;BME280;16501;51.462;14.346;2023-12-22T05:48:41;97495.44;;;1.90;100.00
29569;BME280;16501;51.462;14.346;2023-12-22T05:51:07;97510.28;;;1.93;100.00
29569;BME280;16501;51.462;14.346;2023-12-22T05:53:38;97516.03;;;1.89;100.00
29569;BME280;16501;51.462;14.346;2023-12-22T05:56:04;97496.59;;;1.83;100.00
29569;BME280;16501;51.462;14.346;2023-12-22T05:58:29;97509.25;;;1.90;100.00
29569;BME280;16501;51.462;14.346;2023-12-22T06:00:54;97492.50;;;1.79;100.00
29569;BME280;16501;51.462;14.346;2023-12-22T06:03:19;97478.22;;;1.80;100.00
29569;BME280;16501;51.462;14.346;2023-12-22T06:05:45;97476.00;;;1.64;100.00
29569;BME280;16501;51.462;14.346;2023-12-22T06:08:10;97522.50;;;1.86;100.00
29569;BME280;16501;51.462;14.346;2023-12-22T06:10:35;97482.66;;;1.57;100.00
29569;BME280;16501;51.462;14.346;2023-12-22T06:13:01;97510.97;;;1.87;100.00
29569;BME280;16501;51.462;14.346;2023-12-22T06:15:28;97504.91;;;1.83;100.00
29569;BME280;16501;51.462;14.346;2023-12-22T06:17:54;97514.84;;;1.96;100.00
29569;BME280;16501;51.462;14.346;2023-12-22T06:20:19;97512.09;;;1.96;100.00
29569;BME280;16501;51.462;14.346;2023-12-22T06:22:44;97487.38;;;1.86;100.00
29569;BME280;16501;51.462;14.346;2023-12-22T06:25:09;97508.28;;;1.93;100.00
29569;BME280;16501;51.462;14.346;2023-12-22T06:27:35;97517.69;;;2.01;100.00
29569;BME280;16501;51.462;14.346;2023-12-22T06:30:01;97527.09;;;2.10;100.00
29569;BME280;16501;51.462;14.346;2023-12-22T06:32:26;97523.22;;;2.01;100.00
29569;BME280;16501;51.462;14.346;2023-12-22T06:34:52;97529.19;;;2.15;100.00
29569;BME280;16501;51.462;14.346;2023-12-22T06:37:17;97488.03;;;1.81;100.00
29569;BME280;16501;51.462;14.346;2023-12-22T06:39:42;97491.28;;;1.80;100.00
29569;BME280;16501;51.462;14.346;2023-12-22T06:42:07;97525.72;;;1.99;100.00
29569;BME280;16501;51.462;14.346;2023-12-22T06:44:37;97536.56;;;2.03;100.00
29569;BME280;16501;51.462;14.346;2023-12-22T06:47:02;97493.56;;;1.81;100.00
29569;BME280;16501;51.462;14.346;2023-12-22T06:49:27;97506.50;;;1.90;100.00
29569;BME280;16501;51.462;14.346;2023-12-22T06:51:52;97524.19;;;1.98;100.00
29569;BME280;16501;51.462;14.346;2023-12-22T06:54:18;97518.94;;;2.00;100.00
29569;BME280;16501;51.462;14.346;2023-12-22T06:56:43;97531.03;;;2.03;100.00
29569;BME280;16501;51.462;14.346;2023-12-22T06:59:08;97510.28;;;1.93;100.00
29569;BME280;16501;51.462;14.346;2023-12-22T07:01:36;97531.59;;;2.07;100.00
29569;BME280;16501;51.462;14.346;2023-12-22T07:04:03;97526.06;;;2.07;100.00
29569;BME280;16501;51.462;14.346;2023-12-22T07:06:30;97534.28;;;2.01;100.00
29569;BME280;16501;51.462;14.346;2023-12-22T07:09:41;97523.44;;;1.98;100.00
29569;BME280;16501;51.462;14.346;2023-12-22T07:11:50;97547.84;;;2.20;100.00
29569;BME280;16501;51.462;14.346;2023-12-22T07:14:16;97526.94;;;1.98;100.00
29569;BME280;16501;51.462;14.346;2023-12-22T07:16:42;97571.47;;;2.21;100.00
29569;BME280;16501;51.462;14.346;2023-12-22T07:19:07;97522.34;;;2.10;100.00
29569;BME280;16501;51.462;14.346;2023-12-22T07:21:33;97542.50;;;1.96;100.00
29569;BME280;16501;51.462;14.346;2023-12-22T07:23:58;97575.97;;;2.18;100.00
29569;BME280;16501;51.462;14.346;2023-12-22T07:26:24;97578.06;;;2.23;100.00
29569;BME280;16501;51.462;14.346;2023-12-22T07:28:51;97558.75;;;2.08;100.00
29569;BME280;16501;51.462;14.346;2023-12-22T07:31:16;97568.16;;;2.17;100.00
29569;BME280;16501;51.462;14.346;2023-12-22T07:33:42;97596.16;;;2.24;100.00
29569;BME280;16501;51.462;14.346;2023-12-22T07:36:08;97584.88;;;2.07;100.00
29569;BME280;16501;51.462;14.346;2023-12-22T07:38:33;97605.06;;;2.14;100.00
29569;BME280;16501;51.462;14.346;2023-12-22T07:40:58;97580.59;;;2.06;100.00
29569;BME280;16501;51.462;14.346;2023-12-22T07:43:24;97625.00;;;2.18;100.00
29569;BME280;16501;51.462;14.346;2023-12-22T07:45:50;97613.19;;;2.02;100.00
29569;BME280;16501;51.462;14.346;2023-12-22T07:48:19;97602.75;;;1.77;100.00
29569;BME280;16501;51.462;14.346;2023-12-22T07:50:44;97607.88;;;1.84;100.00
29569;BME280;16501;51.462;14.346;2023-12-22T07:53:10;97601.41;;;1.87;100.00
29569;BME280;16501;51.462;14.346;2023-12-22T07:55:36;97584.34;;;1.74;100.00
29569;BME280;16501;51.462;14.346;2023-12-22T07:58:03;97611.41;;;1.84;100.00
29569;BME280;16501;51.462;14.346;2023-12-22T08:00:29;97602.19;;;1.73;100.00
29569;BME280;16501;51.462;14.346;2023-12-22T08:02:54;97633.88;;;1.77;100.00
29569;BME280;16501;51.462;14.346;2023-12-22T08:05:19;97619.88;;;1.81;100.00
29569;BME280;16501;51.462;14.346;2023-12-22T08:07:45;97602.53;;;1.65;100.00
29569;BME280;16501;51.462;14.346;2023-12-22T08:10:10;97589.53;;;1.66;100.00
29569;BME280;16501;51.462;14.346;2023-12-22T08:12:35;97633.13;;;1.92;100.00
29569;BME280;16501;51.462;14.346;2023-12-22T08:15:01;97644.28;;;1.97;100.00
29569;BME280;16501;51.462;14.346;2023-12-22T08:17:27;97568.00;;;1.55;100.00
29569;BME280;16501;51.462;14.346;2023-12-22T08:19:52;97649.41;;;2.04;100.00
29569;BME280;16501;51.462;14.346;2023-12-22T08:22:17;97650.34;;;2.16;100.00
29569;BME280;16501;51.462;14.346;2023-12-22T08:24:43;97615.38;;;1.98;100.00
29569;BME280;16501;51.462;14.346;2023-12-22T08:27:08;97646.91;;;2.06;100.00
29569;BME280;16501;51.462;14.346;2023-12-22T08:29:34;97685.50;;;2.31;100.00
29569;BME280;16501;51.462;14.346;2023-12-22T08:32:00;97654.69;;;2.23;100.00
29569;BME280;16501;51.462;14.346;2023-12-22T08:34:28;97674.44;;;2.31;100.00
29569;BME280;16501;51.462;14.346;2023-12-22T08:36:54;97647.47;;;2.25;100.00
29569;BME280;16501;51.462;14.346;2023-12-22T08:39:19;97670.22;;;2.35;100.00
29569;BME280;16501;51.462;14.346;2023-12-22T08:41:45;97672.88;;;2.44;100.00
29569;BME280;16501;51.462;14.346;2023-12-22T08:44:10;97658.88;;;2.33;100.00
29569;BME280;16501;51.462;14.346;2023-12-22T08:46:36;97666.06;;;2.25;100.00
29569;BME280;16501;51.462;14.346;2023-12-22T08:49:02;97675.09;;;2.40;100.00
29569;BME280;16501;51.462;14.346;2023-12-22T08:51:28;97675.97;;;2.32;100.00
29569;BME280;16501;51.462;14.346;2023-12-22T08:53:54;97650.16;;;2.20;100.00
29569;BME280;16501;51.462;14.346;2023-12-22T08:56:24;97656.69;;;2.37;100.00
29569;BME280;16501;51.462;14.346;2023-12-22T08:58:52;97637.47;;;2.13;100.00
29569;BME280;16501;51.462;14.346;2023-12-22T09:01:18;97677.75;;;2.35;100.00
29569;BME280;16501;51.462;14.346;2023-12-22T09:03:43;97680.25;;;2.33;100.00
29569;BME280;16501;51.462;14.346;2023-12-22T09:06:20;97692.63;;;2.37;100.00
29569;BME280;16501;51.462;14.346;2023-12-22T09:08:46;97707.53;;;2.25;100.00
29569;BME280;16501;51.462;14.346;2023-12-22T09:11:12;97691.50;;;2.14;100.00
29569;BME280;16501;51.462;14.346;2023-12-22T09:13:38;97697.97;;;2.26;100.00
29569;BME280;16501;51.462;14.346;2023-12-22T09:16:04;97731.75;;;2.30;100.00
29569;BME280;16501;51.462;14.346;2023-12-22T09:18:30;97731.75;;;2.30;100.00
29569;BME280;16501;51.462;14.346;2023-12-22T09:20:56;97706.75;;;2.39;100.00
29569;BME280;16501;51.462;14.346;2023-12-22T09:23:21;97706.13;;;2.50;100.00
29569;BME280;16501;51.462;14.346;2023-12-22T09:25:47;97727.03;;;2.51;100.00
29569;BME280;16501;51.462;14.346;2023-12-22T09:28:13;97728.28;;;2.50;100.00
29569;BME280;16501;51.462;14.346;2023-12-22T09:30:38;97726.94;;;2.45;100.00
29569;BME280;16501;51.462;14.346;2023-12-22T09:33:04;97707.28;;;2.43;100.00
29569;BME280;16501;51.462;14.346;2023-12-22T09:35:29;97726.38;;;2.56;100.00
29569;BME280;16501;51.462;14.346;2023-12-22T09:37:54;97734.56;;;2.51;100.00
29569;BME280;16501;51.462;14.346;2023-12-22T09:40:20;97710.47;;;2.36;100.00
29569;BME280;16501;51.462;14.346;2023-12-22T09:42:47;97708.84;;;2.30;100.00
29569;BME280;16501;51.462;14.346;2023-12-22T09:45:12;97718.94;;;2.48;100.00
29569;BME280;16501;51.462;14.346;2023-12-22T09:47:42;97709.44;;;2.34;100.00
29569;BME280;16501;51.462;14.346;2023-12-22T09:50:09;97746.56;;;2.62;100.00
29569;BME280;16501;51.462;14.346;2023-12-22T09:52:37;97761.06;;;2.72;100.00
29569;BME280;16501;51.462;14.346;2023-12-22T09:55:04;97748.09;;;2.63;100.00
29569;BME280;16501;51.462;14.346;2023-12-22T09:57:30;97736.06;;;2.67;100.00
29569;BME280;16501;51.462;14.346;2023-12-22T09:59:57;97734.47;;;2.60;100.00
29569;BME280;16501;51.462;14.346;2023-12-22T10:02:25;97695.75;;;2.45;100.00
29569;BME280;16501;51.462;14.346;2023-12-22T10:04:51;97751.34;;;2.62;100.00
29569;BME280;16501;51.462;14.346;2023-12-22T10:07:17;97769.63;;;2.74;100.00
29569;BME280;16501;51.462;14.346;2023-12-22T10:09:44;97758.47;;;2.69;100.00
29569;BME280;16501;51.462;14.346;2023-12-22T10:12:12;97750.84;;;2.63;100.00
29569;BME280;16501;51.462;14.346;2023-12-22T10:14:40;97708.00;;;2.23;100.00
29569;BME280;16501;51.462;14.346;2023-12-22T10:17:05;97756.88;;;2.62;100.00
29569;BME280;16501;51.462;14.346;2023-12-22T10:19:30;97735.69;;;2.59;100.00
29569;BME280;16501;51.462;14.346;2023-12-22T10:21:56;97772.53;;;2.65;100.00
29569;BME280;16501;51.462;14.346;2023-12-22T10:24:38;97775.63;;;2.88;100.00
29569;BME280;16501;51.462;14.346;2023-12-22T10:27:11;97748.31;;;3.16;100.00
29569;BME280;16501;51.462;14.346;2023-12-22T10:29:36;97776.84;;;3.43;100.00
29569;BME280;16501;51.462;14.346;2023-12-22T10:32:03;97779.59;;;3.43;100.00
29569;BME280;16501;51.462;14.346;2023-12-22T10:34:29;97777.63;;;3.43;100.00
29569;BME280;16501;51.462;14.346;2023-12-22T10:36:55;97737.38;;;3.48;100.00
29569;BME280;16501;51.462;14.346;2023-12-22T10:39:20;97742.66;;;3.72;100.00
29569;BME280;16501;51.462;14.346;2023-12-22T10:41:47;97754.72;;;3.69;100.00
29569;BME280;16501;51.462;14.346;2023-12-22T10:44:14;97732.19;;;3.14;100.00
29569;BME280;16501;51.462;14.346;2023-12-22T10:46:39;97761.59;;;3.73;100.00
29569;BME280;16501;51.462;14.346;2023-12-22T10:49:05;97773.16;;;3.72;100.00
29569;BME280;16501;51.462;14.346;2023-12-22T10:51:32;97752.53;;;3.32;100.00
29569;BME280;16501;51.462;14.346;2023-12-22T10:53:58;97782.16;;;3.26;100.00
29569;BME280;16501;51.462;14.346;2023-12-22T10:56:24;97749.03;;;2.96;100.00
29569;BME280;16501;51.462;14.346;2023-12-22T10:58:51;97779.19;;;3.09;100.00
29569;BME280;16501;51.462;14.346;2023-12-22T11:01:17;97753.06;;;2.95;100.00
29569;BME280;16501;51.462;14.346;2023-12-22T11:03:48;97785.44;;;2.89;100.00
29569;BME280;16501;51.462;14.346;2023-12-22T11:06:15;97783.59;;;3.00;100.00
29569;BME280;16501;51.462;14.346;2023-12-22T11:08:43;97774.06;;;3.01;100.00
29569;BME280;16501;51.462;14.346;2023-12-22T11:11:27;97795.66;;;3.18;100.00
29569;BME280;16501;51.462;14.346;2023-12-22T11:13:57;97780.19;;;3.47;100.00
29569;BME280;16501;51.462;14.346;2023-12-22T11:16:24;97781.34;;;3.61;100.00
29569;BME280;16501;51.462;14.346;2023-12-22T11:18:53;97781.91;;;3.44;100.00
29569;BME280;16501;51.462;14.346;2023-12-22T11:21:21;97773.44;;;3.74;100.00
29569;BME280;16501;51.462;14.346;2023-12-22T11:23:47;97748.44;;;3.27;100.00
29569;BME280;16501;51.462;14.346;2023-12-22T11:26:16;97748.38;;;3.21;100.00
29569;BME280;16501;51.462;14.346;2023-12-22T11:28:42;97745.59;;;3.01;100.00
29569;BME280;16501;51.462;14.346;2023-12-22T11:31:10;97781.34;;;3.19;100.00
29569;BME280;16501;51.462;14.346;2023-12-22T11:33:36;97739.84;;;3.05;100.00
29569;BME280;16501;51.462;14.346;2023-12-22T11:36:03;97742.97;;;3.12;100.00
29569;BME280;16501;51.462;14.346;2023-12-22T11:38:29;97737.78;;;3.40;100.00
29569;BME280;16501;51.462;14.346;2023-12-22T11:40:54;97762.91;;;3.78;100.00
29569;BME280;16501;51.462;14.346;2023-12-22T11:43:20;97754.91;;;4.12;100.00
29569;BME280;16501;51.462;14.346;2023-12-22T11:45:49;97747.78;;;4.05;100.00
29569;BME280;16501;51.462;14.346;2023-12-22T11:48:14;97724.38;;;3.80;100.00
29569;BME280;16501;51.462;14.346;2023-12-22T11:50:41;97745.75;;;3.80;100.00
29569;BME280;16501;51.462;14.346;2023-12-22T11:53:25;97759.03;;;4.22;100.00
29569;BME280;16501;51.462;14.346;2023-12-22T11:55:58;97730.59;;;4.27;98.97
29569;BME280;16501;51.462;14.346;2023-12-22T12:01:02;97741.69;;;4.27;95.42
29569;BME280;16501;51.462;14.346;2023-12-22T12:03:31;97738.50;;;3.82;97.10
29569;BME280;16501;51.462;14.346;2023-12-22T12:06:16;97765.78;;;3.89;94.96
29569;BME280;16501;51.462;14.346;2023-12-22T12:08:45;97741.81;;;3.86;93.85
29569;BME280;16501;51.462;14.346;2023-12-22T12:11:10;97742.16;;;3.94;93.78
29569;BME280;16501;51.462;14.346;2023-12-22T12:13:41;97758.44;;;3.86;96.48
29569;BME280;16501;51.462;14.346;2023-12-22T12:16:07;97756.69;;;3.63;98.89
29569;BME280;16501;51.462;14.346;2023-12-22T12:18:32;97729.88;;;3.13;100.00
29569;BME280;16501;51.462;14.346;2023-12-22T12:20:59;97767.72;;;3.36;100.00
29569;BME280;16501;51.462;14.346;2023-12-22T12:23:25;97751.41;;;3.24;100.00
29569;BME280;16501;51.462;14.346;2023-12-22T12:25:51;97742.72;;;3.10;100.00
29569;BME280;16501;51.462;14.346;2023-12-22T12:28:25;97774.41;;;3.09;100.00
29569;BME280;16501;51.462;14.346;2023-12-22T12:30:57;97789.56;;;3.14;100.00
29569;BME280;16501;51.462;14.346;2023-12-22T12:33:24;97767.25;;;3.02;100.00
29569;BME280;16501;51.462;14.346;2023-12-22T12:35:52;97771.66;;;2.94;100.00
29569;BME280;16501;51.462;14.346;2023-12-22T12:38:21;97776.94;;;2.92;100.00
29569;BME280;16501;51.462;14.346;2023-12-22T12:40:49;97776.44;;;2.94;100.00
29569;BME280;16501;51.462;14.346;2023-12-22T12:43:15;97754.91;;;2.83;100.00
29569;BME280;16501;51.462;14.346;2023-12-22T12:45:41;97760.84;;;2.76;100.00
29569;BME280;16501;51.462;14.346;2023-12-22T12:48:06;97770.97;;;2.79;100.00